Time;durP1;ratioP1;P1;durP2;ratioP2;P2;SDS_P1;SDS_P2;PMS_P1;PMS_P2;Temp;Humidity;BMP_temperature;BMP_pressure;BME280_temperature;BME280_humidity;BME280_pressure;Samples;Min_cycle;Max_cycle;Signal;HPM_P1;HPM_P2
2021/06/19 00:01:56;;;;;;;5.70;5.20;;;;;;;;;;3603005;39;20351;-72
2021/06/19 00:04:22;;;;;;;5.47;4.97;;;;;;;;;;3602458;39;20428;-71
2021/06/19 00:06:50;;;;;;;5.30;4.80;;;;;;;;;;3593888;39;20395;-72
2021/06/19 00:09:16;;;;;;;5.15;4.70;;;;;;;;;;3603498;39;20472;-71
2021/06/19 00:11:42;;;;;;;5.65;5.10;;;;;;;;;;3602588;39;20457;-72
2021/06/19 00:14:08;;;;;;;5.88;5.32;;;;;;;;;;3607631;39;20720;-72
2021/06/19 00:16:35;;;;;;;5.20;4.80;;;;;;;;;;3607231;39;20378;-71
2021/06/19 00:19:02;;;;;;;6.28;5.70;;;;;;;;;;3597525;39;20364;-72
2021/06/19 00:21:28;;;;;;;5.25;4.85;;;;;;;;;;3587353;40;20439;-70
2021/06/19 00:23:56;;;;;;;4.77;4.40;;;;;;;;;;3589993;39;20402;-72
2021/06/19 00:26:22;;;;;;;5.35;4.22;;;;;;;;;;3607247;39;20362;-72
2021/06/19 00:28:48;;;;;;;5.80;5.10;;;;;;;;;;3598147;39;20432;-71
2021/06/19 00:31:15;;;;;;;6.03;5.40;;;;;;;;;;3605417;39;20364;-71
2021/06/19 00:33:41;;;;;;;7.68;5.90;;;;;;;;;;3602478;39;20644;-71
2021/06/19 00:36:07;;;;;;;7.70;5.53;;;;;;;;;;3604652;39;20359;-72
2021/06/19 00:38:34;;;;;;;5.93;5.43;;;;;;;;;;3597497;39;20433;-71
2021/06/19 00:41:01;;;;;;;5.47;4.97;;;;;;;;;;3606250;39;20363;-72
2021/06/19 00:43:27;;;;;;;7.03;5.07;;;;;;;;;;3605445;39;20728;-72
2021/06/19 00:45:53;;;;;;;5.35;4.90;;;;;;;;;;3603925;39;20347;-72
2021/06/19 00:48:21;;;;;;;4.60;4.20;;;;;;;;;;3607840;39;20403;-71
2021/06/19 00:50:47;;;;;;;4.50;4.10;;;;;;;;;;3598536;39;20367;-70
2021/06/19 00:53:13;;;;;;;6.78;5.80;;;;;;;;;;3600217;39;20394;-72
2021/06/19 00:55:39;;;;;;;5.45;4.95;;;;;;;;;;3598903;39;20390;-72
2021/06/19 00:58:08;;;;;;;5.45;4.95;;;;;;;;;;3604168;39;20794;-71
2021/06/19 01:00:34;;;;;;;6.47;5.25;;;;;;;;;;3599353;39;20413;-74
2021/06/19 01:05:35;;;;;;;6.10;5.50;;;;;;;;;;3607272;40;20479;-77
2021/06/19 01:08:02;;;;;;;5.60;5.10;;;;;;;;;;3607315;40;20404;-78
2021/06/19 01:10:28;;;;;;;6.35;5.82;;;;;;;;;;3597953;40;20408;-77
2021/06/19 01:12:55;;;;;;;7.10;6.40;;;;;;;;;;3606225;40;20489;-78
2021/06/19 01:15:23;;;;;;;7.47;6.05;;;;;;;;;;3597510;40;20396;-76
2021/06/19 01:17:49;;;;;;;6.82;5.32;;;;;;;;;;3607695;40;20357;-77
2021/06/19 01:20:16;;;;;;;5.20;4.70;;;;;;;;;;3606198;40;20396;-75
2021/06/19 01:22:44;;;;;;;4.82;4.40;;;;;;;;;;3596762;40;20605;-76
2021/06/19 01:25:16;;;;;;;4.88;4.47;;;;;;;;;;3587668;40;20397;-77
2021/06/19 01:27:42;;;;;;;4.40;3.92;;;;;;;;;;3595918;40;20803;-77
2021/06/19 01:30:09;;;;;;;4.70;4.15;;;;;;;;;;3596263;40;20377;-76
2021/06/19 01:32:36;;;;;;;5.97;4.30;;;;;;;;;;3596042;40;20343;-77
2021/06/19 01:35:03;;;;;;;5.18;4.70;;;;;;;;;;3596397;40;20346;-78
2021/06/19 01:37:29;;;;;;;4.88;4.38;;;;;;;;;;3597379;40;20346;-78
2021/06/19 01:40:02;;;;;;;4.70;4.30;;;;;;;;;;3596438;40;20401;-78
2021/06/19 01:42:29;;;;;;;5.82;5.00;;;;;;;;;;3597119;40;20347;-77
2021/06/19 01:44:55;;;;;;;5.88;4.32;;;;;;;;;;3595575;40;20414;-77
2021/06/19 01:47:22;;;;;;;4.32;3.92;;;;;;;;;;3595782;40;20402;-76
2021/06/19 01:49:48;;;;;;;4.93;4.23;;;;;;;;;;3586511;40;20507;-78
2021/06/19 01:52:19;;;;;;;4.33;3.90;;;;;;;;;;3595228;40;20414;-77
2021/06/19 01:54:45;;;;;;;4.28;3.65;;;;;;;;;;3595774;40;20345;-77
2021/06/19 01:57:11;;;;;;;4.55;4.18;;;;;;;;;;3595044;40;20414;-77
2021/06/19 01:59:38;;;;;;;5.35;3.80;;;;;;;;;;3595982;40;20845;-79
2021/06/19 02:02:04;;;;;;;5.28;4.20;;;31.70;70.00;;;;;;3595022;40;20406;-77
2021/06/19 02:04:31;;;;;;;4.55;3.90;;;22.80;98.70;;;;;;3598812;40;20667;-77
2021/06/19 02:06:58;;;;;;;6.33;3.80;;;22.50;98.60;;;;;;3596826;40;20366;-77
2021/06/19 02:09:24;;;;;;;5.57;3.83;;;22.50;98.40;;;;;;3587046;40;20410;-76
2021/06/19 02:11:50;;;;;;;5.32;3.63;;;22.50;98.30;;;;;;3586996;40;20711;-76
2021/06/19 02:14:16;;;;;;;5.73;3.80;;;22.60;98.10;;;;;;3587658;40;20417;-77
2021/06/19 02:16:44;;;;;;;5.05;3.88;;;22.60;98.20;;;;;;3587729;40;20401;-76
2021/06/19 02:19:10;;;;;;;4.63;4.10;;;22.60;97.90;;;;;;3586330;40;20408;-77
2021/06/19 02:21:36;;;;;;;4.60;4.00;;;22.60;98.10;;;;;;3595383;40;20355;-76
2021/06/19 02:24:02;;;;;;;5.65;4.05;;;22.70;97.80;;;;;;3594981;40;20830;-77
2021/06/19 02:26:28;;;;;;;4.47;3.70;;;22.70;97.80;;;;;;3584964;40;20700;-77
2021/06/19 02:28:54;;;;;;;4.17;3.80;;;;;;;;;;3586612;40;20405;-79
2021/06/19 02:31:21;;;;;;;3.88;3.58;;;;;;;;;;3596930;40;20370;-77
2021/06/19 02:33:48;;;;;;;4.40;4.00;;;;;;;;;;3597378;40;20355;-78
2021/06/19 02:36:15;;;;;;;4.77;3.60;;;;;;;;;;3594696;40;20410;-78
2021/06/19 02:38:41;;;;;;;5.00;3.90;;;;;;;;;;3596010;40;20342;-80
2021/06/19 02:41:07;;;;;;;3.95;3.63;;;;;;;;;;3595750;40;20458;-77
2021/06/19 02:43:33;;;;;;;4.82;3.58;;;;;;;;;;3597429;40;20364;-77
2021/06/19 02:46:00;;;;;;;4.25;3.60;;;;;;;;;;3597337;40;20375;-77
2021/06/19 02:48:26;;;;;;;5.35;4.20;;;;;;;;;;3595595;40;20442;-78
2021/06/19 02:50:54;;;;;;;3.88;3.50;;;;;;;;;;3595779;40;20401;-77
2021/06/19 02:53:20;;;;;;;3.90;3.50;;;;;;;;;;3596008;40;20402;-75
2021/06/19 02:55:46;;;;;;;4.60;4.18;;;;;;;;;;3595133;40;20414;-77
2021/06/19 02:58:13;;;;;;;4.38;3.95;;;;;;;;;;3595291;40;20514;-77
2021/06/19 03:00:40;;;;;;;6.32;4.10;;;;;;;;;;3595941;40;20467;-77
2021/06/19 03:03:06;;;;;;;4.50;3.67;;;;;;;;;;3594688;40;20406;-75
2021/06/19 03:05:33;;;;;;;5.25;3.50;;;;;;;;;;3603090;39;20387;-78
2021/06/19 03:08:01;;;;;;;5.55;3.90;;;;;;;;;;3607181;40;20333;-79
2021/06/19 03:10:28;;;;;;;4.00;3.63;;;;;;;;;;3607669;40;20367;-77
2021/06/19 03:12:54;;;;;;;6.40;3.80;;;;;;;;;;3607506;40;20389;-78
2021/06/19 03:15:20;;;;;;;4.50;3.90;;;;;;;;;;3608140;40;20368;-78
2021/06/19 03:17:47;;;;;;;5.10;3.97;;;;;;;;;;3608467;40;20439;-82
2021/06/19 03:22:43;;;;;;;7.40;4.18;;;;;;;;;;3597445;40;20408;-73
2021/06/19 03:25:11;;;;;;;4.13;3.72;;;;;;;;;;3589620;40;20393;-74
2021/06/19 03:27:37;;;;;;;4.30;3.90;;;;;;;;;;3589619;40;20367;-73
2021/06/19 03:30:03;;;;;;;4.32;3.95;;;;;;;;;;3591931;40;20415;-73
2021/06/19 03:32:30;;;;;;;4.30;3.90;;;;;;;;;;3600060;40;20426;-74
2021/06/19 03:34:57;;;;;;;4.43;3.92;;;;;;;;;;3601379;40;20412;-73
2021/06/19 03:37:23;;;;;;;5.00;4.03;;;;;;;;;;3603111;39;20633;-72
2021/06/19 03:39:49;;;;;;;6.93;4.97;;;;;;;;;;3598184;39;20411;-72
2021/06/19 03:42:17;;;;;;;5.05;4.00;;;;;;;;;;3597376;40;20435;-72
2021/06/19 03:44:43;;;;;;;5.47;4.85;;;;;;;;;;3588063;40;20405;-72
2021/06/19 03:47:09;;;;;;;4.97;4.40;;;22.70;97.60;;;;;;3596658;39;20648;-72
2021/06/19 03:49:35;;;;;;;5.22;4.50;;;22.30;99.50;;;;;;3591048;39;20412;-72
2021/06/19 03:52:00;;;;;;;5.53;4.50;;;22.20;99.80;;;;;;3595964;40;20372;-73
2021/06/19 03:54:27;;;;;;;5.07;4.57;;;;;;;;;;3599047;39;20367;-72
2021/06/19 03:56:53;;;;;;;4.95;4.45;;;;;;;;;;3600905;39;20368;-72
2021/06/19 03:59:20;;;;;;;5.38;4.43;;;;;;;;;;3587996;40;20522;-72
2021/06/19 04:01:46;;;;;;;5.47;5.00;;;;;;;;;;3586594;40;20492;-73
2021/06/19 04:04:13;;;;;;;5.30;4.80;;;;;;;;;;3598083;40;20385;-72
2021/06/19 04:06:39;;;;;;;5.35;4.85;;;;;;;;;;3586896;40;20394;-73
2021/06/19 04:09:05;;;;;;;5.00;4.50;;;;;;;;;;3588294;40;20434;-72
2021/06/19 04:11:31;;;;;;;4.80;4.35;;;;;;;;;;3590087;40;20355;-74
2021/06/19 04:13:57;;;;;;;4.68;4.25;;;;;;;;;;3591381;40;20449;-73
2021/06/19 04:16:25;;;;;;;5.93;4.20;;;;;;;;;;3592475;40;20396;-74
2021/06/19 04:18:51;;;;;;;5.47;4.28;;;;;;;;;;3601723;39;20369;-74
2021/06/19 04:21:17;;;;;;;5.57;4.65;;;;;;;;;;3590817;40;20445;-74
2021/06/19 04:23:43;;;;;;;6.30;4.45;;;;;;;;;;3601592;40;20384;-74
2021/06/19 04:26:09;;;;;;;5.32;4.13;;;;;;;;;;3601131;40;20341;-73
2021/06/19 04:28:35;;;;;;;4.57;4.03;;;;;;;;;;3590316;40;20458;-74
2021/06/19 04:31:03;;;;;;;5.25;4.13;;;;;;;;;;3600852;40;20365;-74
2021/06/19 04:33:31;;;;;;;5.85;4.50;;;;;;;;;;3589186;40;20487;-74
2021/06/19 04:35:57;;;;;;;6.38;4.78;;;;;;;;;;3591322;40;20427;-74
2021/06/19 04:38:23;;;;;;;6.47;4.40;;;;;;;;;;3589045;40;20390;-74
2021/06/19 04:43:23;;;;;;;5.32;4.63;;;;;;;;;;3589311;40;20474;-74
2021/06/19 04:45:49;;;;;;;4.57;3.95;;;;;;;;;;3589911;40;20378;-74
2021/06/19 04:48:16;;;;;;;5.97;4.35;;;;;;;;;;3592190;40;20430;-73
2021/06/19 04:50:43;;;;;;;5.53;4.40;;;;;;;;;;3603044;40;20373;-74
2021/06/19 04:53:11;;;;;;;5.10;4.18;;;;;;;;;;3592981;40;20355;-73
2021/06/19 04:55:38;;;;;;;5.45;4.38;;;;;;;;;;3602619;40;20360;-74
2021/06/19 04:58:04;;;;;;;6.65;4.68;;;;;;;;;;3604478;40;20341;-74
2021/06/19 05:00:33;;;;;;;5.17;4.47;;;;;;;;;;3602591;40;20353;-74
2021/06/19 05:03:00;;;;;;;7.47;4.13;;;;;;;;;;3602132;40;20396;-74
2021/06/19 05:05:28;;;;;;;3.80;3.20;;;;;;;;;;3602449;40;20401;-74
2021/06/19 05:07:56;;;;;;;5.82;4.07;;;;;;;;;;3602267;39;20398;-74
2021/06/19 05:10:22;;;;;;;5.00;4.00;;;;;;;;;;3602220;39;20419;-74
2021/06/19 05:12:48;;;;;;;3.78;3.47;;;;;;;;;;3602742;39;20398;-74
2021/06/19 05:15:17;;;;;;;6.55;4.03;;;;;;;;;;3578346;40;20399;-75
2021/06/19 05:17:44;;;;;;;4.88;3.90;;;;;;;;;;3578225;40;20415;-73
2021/06/19 05:20:10;;;;;;;5.40;4.20;;;;;;;;;;3568381;40;20408;-74
2021/06/19 05:22:37;;;;;;;5.03;4.15;;;;;;;;;;3571660;40;20846;-74
2021/06/19 05:25:06;;;;;;;5.18;4.68;;;;;;;;;;3567452;40;20397;-74
2021/06/19 05:27:32;;;;;;;4.63;4.07;;;;;;;;;;3557881;40;20348;-75
2021/06/19 05:29:59;;;;;;;4.45;4.00;;;;;;;;;;3557860;40;20391;-73
2021/06/19 05:32:25;;;;;;;4.80;4.05;;;;;;;;;;3563386;40;20373;-73
2021/06/19 05:34:51;;;;;;;4.60;4.20;;;;;;;;;;3557174;40;20403;-73
2021/06/19 05:37:17;;;;;;;5.75;4.78;;;;;;;;;;3556802;40;20411;-72
2021/06/19 05:39:44;;;;;;;5.78;4.40;;;;;;;;;;3566094;40;20628;-72
2021/06/19 05:42:11;;;;;;;4.72;3.90;;;;;;;;;;3567916;40;20362;-73
2021/06/19 05:44:37;;;;;;;4.88;3.55;;;;;;;;;;3568153;40;20358;-72
2021/06/19 05:47:06;;;;;;;3.65;3.30;;;;;;;;;;3569875;40;20361;-73
2021/06/19 05:49:32;;;;;;;4.03;3.70;;;;;;;;;;3570423;40;20354;-73
2021/06/19 05:51:58;;;;;;;6.70;4.28;;;;;;;;;;3569701;40;20809;-73
2021/06/19 05:54:27;;;;;;;4.55;4.15;;;;;;;;;;3576725;40;20491;-72
2021/06/19 05:56:53;;;;;;;4.18;3.78;;;;;;;;;;3577056;40;20404;-73
2021/06/19 05:59:21;;;;;;;4.00;3.33;;;;;;;;;;3585656;40;20404;-73
2021/06/19 06:01:47;;;;;;;4.47;4.07;;;;;;;;;;3574383;40;20370;-74
2021/06/19 06:04:13;;;;;;;5.13;4.33;;;;;;;;;;3570292;40;20483;-74
2021/06/19 06:06:39;;;;;;;5.85;4.20;;;;;;;;;;3569607;40;20354;-74
2021/06/19 06:09:06;;;;;;;5.55;4.30;;;;;;;;;;3574167;40;20412;-73
2021/06/19 06:11:32;;;;;;;6.53;4.97;;;;;;;;;;3577992;40;20406;-73
2021/06/19 06:13:58;;;;;;;7.10;5.47;;;;;;;;;;3577094;40;20408;-73
2021/06/19 06:16:26;;;;;;;8.02;5.85;;;;;;;;;;3569393;40;20442;-73
2021/06/19 06:18:52;;;;;;;5.95;5.35;;;;;;;;;;3580794;40;20817;-73
2021/06/19 06:21:18;;;;;;;6.82;5.30;;;;;;;;;;3578606;40;20460;-74
2021/06/19 06:23:44;;;;;;;6.80;5.60;;;22.10;99.90;;;;;;3588092;40;20784;-73
2021/06/19 06:26:10;;;;;;;7.32;5.20;;;;;;;;;;3581041;40;20408;-74
2021/06/19 06:28:38;;;;;;;6.43;5.72;;;;;;;;;;3589834;40;20369;-73
2021/06/19 06:31:04;;;;;;;6.38;5.78;;;;;;;;;;3598099;40;20373;-73
2021/06/19 06:33:32;;;;;;;6.43;5.67;;;23.80;98.80;;;;;;3582471;40;20411;-75
2021/06/19 06:35:58;;;;;;;6.97;6.05;;;23.80;99.90;;;;;;3585036;40;20765;-73
2021/06/19 06:38:24;;;;;;;5.80;5.10;;;23.80;99.90;;;;;;3581652;40;20412;-74
2021/06/19 06:40:50;;;;;;;6.13;5.10;;;23.80;99.90;;;;;;3600010;39;20414;-75
2021/06/19 06:43:16;;;;;;;5.03;4.13;;;;;;;;;;3593811;40;20411;-72
2021/06/19 06:45:42;;;;;;;7.03;5.10;;;;;;;;;;3598633;40;20652;-72
2021/06/19 06:48:09;;;;;;;7.53;6.03;;;;;;;;;;3599178;40;20364;-73
2021/06/19 06:50:36;;;;;;;16.75;10.75;;;;;;;;;;3599309;40;20361;-74
2021/06/19 06:53:02;;;;;;;9.13;6.50;;;;;;;;;;3589476;40;20754;-72
2021/06/19 06:55:29;;;;;;;6.53;5.85;;;;;;;;;;3589541;40;20358;-73
2021/06/19 06:57:55;;;;;;;7.18;6.47;;;;;;;;;;3589286;40;20359;-73
2021/06/19 07:00:21;;;;;;;7.43;6.82;;;;;;;;;;3589509;40;20479;-73
2021/06/19 07:02:47;;;;;;;5.80;5.25;;;;;;;;;;3589449;40;20347;-72
2021/06/19 07:05:14;;;;;;;5.17;4.77;;;;;;;;;;3589207;40;20437;-72
2021/06/19 07:07:41;;;;;;;5.72;5.22;;;;;;;;;;3589224;40;20351;-72
2021/06/19 07:10:09;;;;;;;6.72;5.90;;;;;;;;;;3580533;40;20409;-72
2021/06/19 07:12:36;;;;;;;5.65;5.15;;;;;;;;;;3596701;40;20384;-72
2021/06/19 07:15:02;;;;;;;5.85;5.28;;;;;;;;;;3599262;40;20711;-72
2021/06/19 07:17:28;;;;;;;6.40;5.80;;;;;;;;;;3599299;40;20341;-73
2021/06/19 07:19:54;;;;;;;7.00;6.30;;;;;;;;;;3599120;40;20344;-72
2021/06/19 07:22:21;;;;;;;10.47;6.93;;;;;;;;;;3588732;40;20409;-72
2021/06/19 07:24:48;;;;;;;6.53;5.90;;;;;;;;;;3590518;40;20395;-72
2021/06/19 07:27:14;;;;;;;6.72;6.03;;;;;;;;;;3579393;40;20361;-71
2021/06/19 07:29:41;;;;;;;6.88;6.20;;;23.90;99.50;;;;;;3579070;40;20774;-73
2021/06/19 07:32:08;;;;;;;6.20;5.70;;;25.50;97.80;;;;;;3579109;40;20368;-72
2021/06/19 07:34:34;;;;;;;5.75;5.20;;;25.30;98.80;;;;;;3577855;40;20474;-73
2021/06/19 07:37:00;;;;;;;5.80;5.30;;;25.50;96.50;;;;;;3570785;40;20755;-73
2021/06/19 07:39:25;;;;;;;6.30;5.70;;;25.30;97.30;;;;;;3572188;40;20454;-72
2021/06/19 07:41:53;;;;;;;6.63;5.85;;;25.30;97.50;;;;;;3578910;40;20349;-72
2021/06/19 07:44:19;;;;;;;5.60;5.10;;;25.30;97.50;;;;;;3577938;40;20407;-73
2021/06/19 07:46:49;;;;;;;6.50;5.63;;;25.30;97.60;;;;;;3578987;40;20356;-72
2021/06/19 07:49:16;;;;;;;7.40;6.70;;;25.30;97.40;;;;;;3578704;40;20360;-72
2021/06/19 07:51:42;;;;;;;6.53;5.97;;;25.50;97.30;;;;;;3578837;40;20380;-72
2021/06/19 07:54:08;;;;;;;7.45;5.47;;;25.50;97.30;;;;;;3577416;40;20416;-72
2021/06/19 07:56:34;;;;;;;5.30;4.90;;;25.50;96.40;;;;;;3578538;40;20368;-72
2021/06/19 07:59:01;;;;;;;8.23;6.18;;;25.50;96.00;;;;;;3578860;40;20368;-72
2021/06/19 08:01:28;;;;;;;5.65;5.07;;;25.40;96.50;;;;;;3578747;40;20457;-72
2021/06/19 08:03:54;;;;;;;4.72;4.32;;;25.30;95.90;;;;;;3572732;40;20386;-71
2021/06/19 08:06:20;;;;;;;5.90;5.30;;;25.40;95.80;;;;;;3567400;40;20409;-72
2021/06/19 08:08:46;;;;;;;7.30;5.47;;;25.50;96.10;;;;;;3569105;40;20445;-72
2021/06/19 08:11:13;;;;;;;6.13;5.47;;;25.60;96.00;;;;;;3567109;40;20414;-72
2021/06/19 08:13:38;;;;;;;7.22;5.95;;;25.30;95.20;;;;;;3568812;40;20650;-70
2021/06/19 08:16:06;;;;;;;4.57;4.18;;;25.00;96.20;;;;;;3568573;40;20369;-72
2021/06/19 08:18:32;;;;;;;5.70;5.15;;;25.20;96.00;;;;;;3568410;40;20596;-72
2021/06/19 08:21:00;;;;;;;5.63;5.10;;;25.40;95.80;;;;;;3570986;40;20627;-69
2021/06/19 08:23:27;;;;;;;5.88;5.38;;;25.60;95.70;;;;;;3573011;40;20394;-69
2021/06/19 08:25:55;;;;;;;4.82;4.32;;;25.80;95.10;;;;;;3587839;39;20777;-68
2021/06/19 08:28:21;;;;;;;8.82;6.10;;;26.00;95.90;;;;;;3599488;39;20756;-69
2021/06/19 08:30:47;;;;;;;5.75;4.63;;;26.10;95.00;;;;;;3588832;39;20775;-68
2021/06/19 08:33:14;;;;;;;8.90;5.88;;;;;;;;;;3595454;39;20385;-68
2021/06/19 08:35:41;;;;;;;7.68;6.15;;;;;;;;;;3598203;39;20724;-69
2021/06/19 08:38:07;;;;;;;6.35;5.50;;;;;;;;;;3596322;39;20369;-69
2021/06/19 08:40:35;;;;;;;8.05;5.90;;;;;;;;;;3599554;39;20653;-69
2021/06/19 08:43:01;;;;;;;6.22;5.63;;;;;;;;;;3595337;39;20377;-69
2021/06/19 08:45:31;;;;;;;7.85;5.65;;;;;;;;;;3595862;39;20461;-69
2021/06/19 08:47:58;;;;;;;5.65;5.15;;;;;;;;;;3572208;40;20397;-69
2021/06/19 08:50:26;;;;;;;6.60;6.00;;;;;;;;;;3572559;40;20407;-69
2021/06/19 08:52:52;;;;;;;9.07;6.00;;;;;;;;;;3560789;40;20856;-68
2021/06/19 08:55:18;;;;;;;8.48;6.50;;;;;;;;;;3569538;40;20808;-69
2021/06/19 08:57:45;;;;;;;6.60;5.93;;;26.10;95.40;;;;;;3576613;40;20399;-69
2021/06/19 09:00:13;;;;;;;6.95;5.47;;;27.30;94.10;;;;;;3576849;40;20382;-69
2021/06/19 09:02:39;;;;;;;7.55;5.97;;;27.30;94.50;;;;;;3576687;40;20432;-69
2021/06/19 09:05:08;;;;;;;7.05;6.35;;;;;;;;;;3575576;40;20779;-69
2021/06/19 09:07:36;;;;;;;6.18;5.68;;;;;;;;;;3575910;40;20469;-69
2021/06/19 09:10:18;;;;;;;5.25;4.75;;;;;;;;;;3575812;40;20527;-69
2021/06/19 09:12:54;;;;;;;6.72;5.70;;;27.40;93.90;;;;;;3573816;40;20399;-69
2021/06/19 09:15:21;;;;;;;4.53;3.92;;;;;;;;;;3574923;40;20380;-69
2021/06/19 09:17:59;;;;;;;5.20;4.00;;;;;;;;;;3567633;40;20769;-69
2021/06/19 09:20:31;;;;;;;5.37;4.50;;;;;;;;;;3597549;39;20371;-69
2021/06/19 09:23:03;;;;;;;4.57;3.65;;;;;;;;;;3597207;39;20763;-69
2021/06/19 09:25:29;;;;;;;4.18;3.78;;;;;;;;;;3603617;39;20375;-68
2021/06/19 09:27:57;;;;;;;5.07;3.85;;;;;;;;;;3602586;39;20452;-69
2021/06/19 09:30:23;;;;;;;4.88;4.35;;;;;;;;;;3586482;39;20387;-69
2021/06/19 09:32:50;;;;;;;7.00;4.80;;;;;;;;;;3603009;39;20369;-69
2021/06/19 09:35:17;;;;;;;5.28;4.68;;;;;;;;;;3603210;39;20387;-69
2021/06/19 09:37:44;;;;;;;7.20;4.82;;;;;;;;;;3597556;39;20365;-69
2021/06/19 09:40:22;;;;;;;4.28;3.85;;;;;;;;;;3595761;39;20378;-68
2021/06/19 09:42:49;;;;;;;6.65;3.70;;;;;;;;;;3598319;39;20456;-69
2021/06/19 09:45:19;;;;;;;5.20;4.17;;;;;;;;;;3601371;39;20352;-69
2021/06/19 09:47:45;;;;;;;4.68;4.20;;;;;;;;;;3600761;39;20372;-68
2021/06/19 09:50:11;;;;;;;4.78;3.38;;;;;;;;;;3599034;39;20399;-69
2021/06/19 09:52:37;;;;;;;3.22;3.03;;;28.00;93.60;;;;;;3598469;39;20373;-69
2021/06/19 09:55:10;;;;;;;5.90;4.20;;;28.70;88.80;;;;;;3604766;39;20608;-69
2021/06/19 09:57:41;;;;;;;4.13;3.78;;;28.90;89.60;;;;;;3598408;39;20380;-69
2021/06/19 10:00:08;;;;;;;4.17;3.70;;;;;;;;;;3598835;39;20452;-69
2021/06/19 10:02:35;;;;;;;4.70;4.38;;;;;;;;;;3599572;39;20369;-69
2021/06/19 10:05:01;;;;;;;6.00;4.70;;;;;;;;;;3599460;39;20388;-69
2021/06/19 10:07:32;;;;;;;5.40;4.90;;;;;;;;;;3599442;39;20813;-69
2021/06/19 10:09:58;;;;;;;6.07;5.47;;;;;;;;;;3600752;39;20398;-69
2021/06/19 10:12:25;;;;;;;5.07;4.68;;;;;;;;;;3583252;40;20501;-69
2021/06/19 10:14:54;;;;;;;5.85;5.22;;;;;;;;;;3599110;39;20380;-69
2021/06/19 10:17:25;;;;;;;4.97;4.47;;;28.90;90.60;;;;;;3581957;40;20645;-70
2021/06/19 10:19:52;;;;;;;7.60;4.68;;;29.90;89.00;;;;;;3601856;39;20540;-69
2021/06/19 10:22:18;;;;;;;5.60;5.10;;;30.00;89.80;;;;;;3596476;39;20377;-68
2021/06/19 10:24:45;;;;;;;5.17;4.20;;;;;;;;;;3596728;39;20375;-68
2021/06/19 10:27:16;;;;;;;6.22;4.47;;;;;;;;;;3596990;39;20420;-68
2021/06/19 10:29:43;;;;;;;5.63;4.15;;;29.60;89.80;;;;;;3591145;39;20417;-68
2021/06/19 10:32:11;;;;;;;6.85;5.20;;;29.70;90.40;;;;;;3596282;39;20397;-69
2021/06/19 10:34:38;;;;;;;5.10;4.03;;;;;;;;;;3585771;40;20496;-68
2021/06/19 10:37:07;;;;;;;6.07;4.30;;;;;;;;;;3591042;39;20371;-68
2021/06/19 10:39:40;;;;;;;6.00;4.40;;;;;;;;;;3594042;39;20399;-68
2021/06/19 10:42:22;;;;;;;8.98;4.35;;;;;;;;;;3594420;39;20427;-68
2021/06/19 10:44:53;;;;;;;5.10;4.23;;;;;;;;;;3594105;39;20357;-68
2021/06/19 10:47:21;;;;;;;4.65;4.25;;;;;;;;;;3593697;39;20377;-68
2021/06/19 10:49:48;;;;;;;5.28;3.80;;;;;;;;;;3594950;39;20394;-68
2021/06/19 10:52:34;;;;;;;4.35;3.95;;;30.00;90.00;;;;;;3592116;39;20780;-68
2021/06/19 10:55:33;;;;;;;6.13;3.53;;;;;;;;;;3593888;39;20439;-68
2021/06/19 10:58:19;;;;;;;4.18;3.78;;;;;;;;;;3592857;39;20368;-68
2021/06/19 11:00:47;;;;;;;3.20;3.00;;;30.40;86.70;;;;;;3583762;40;20645;-68
2021/06/19 11:03:15;;;;;;;3.88;3.58;;;31.10;84.60;;;;;;3594532;39;20501;-68
2021/06/19 11:05:55;;;;;;;4.55;3.35;;;31.10;84.80;;;;;;3599256;39;20668;-68
2021/06/19 11:08:21;;;;;;;4.88;4.15;;;31.20;83.30;;;;;;3598742;39;20383;-68
2021/06/19 11:11:00;;;;;;;4.13;3.63;;;31.10;84.20;;;;;;3596513;39;20384;-68
2021/06/19 11:13:48;;;;;;;3.35;2.90;;;30.80;83.50;;;;;;3601911;39;20756;-68
2021/06/19 11:16:48;;;;;;;4.72;3.78;;;31.00;82.70;;;;;;3595156;39;20450;-68
2021/06/19 11:19:47;;;;;;;3.30;3.00;;;31.30;83.10;;;;;;3600656;39;20480;-68
2021/06/19 11:22:32;;;;;;;4.28;3.72;;;31.10;82.60;;;;;;3586134;40;20384;-68
2021/06/19 11:25:17;;;;;;;3.92;3.10;;;30.60;82.40;;;;;;3592456;39;20437;-68
2021/06/19 11:27:55;;;;;;;3.77;3.30;;;30.90;81.50;;;;;;3601612;39;20418;-68
2021/06/19 11:30:40;;;;;;;4.03;3.10;;;31.00;81.00;;;;;;3592311;39;20378;-68
2021/06/19 11:33:38;;;;;;;5.33;3.47;;;30.90;81.90;;;;;;3598855;39;20460;-68
2021/06/19 11:36:31;;;;;;;3.60;3.30;;;30.80;82.40;;;;;;3588797;39;20387;-68
2021/06/19 11:39:02;;;;;;;4.77;3.50;;;30.90;82.20;;;;;;3592363;39;20389;-68
2021/06/19 11:41:35;;;;;;;3.83;3.53;;;31.10;81.50;;;;;;3590015;39;20390;-68
2021/06/19 11:44:08;;;;;;;5.45;3.78;;;31.20;82.50;;;;;;3595981;39;20676;-69
2021/06/19 11:46:34;;;;;;;4.10;3.65;;;31.00;82.00;;;;;;3599808;39;20736;-68
2021/06/19 11:49:02;;;;;;;6.18;3.85;;;31.20;82.30;;;;;;3597008;39;20383;-68
2021/06/19 11:51:32;;;;;;;4.80;4.40;;;31.30;80.20;;;;;;3600847;39;20400;-68
2021/06/19 11:54:00;;;;;;;4.78;3.38;;;31.20;81.20;;;;;;3598808;39;20435;-68
2021/06/19 11:56:27;;;;;;;4.65;3.20;;;31.40;81.90;;;;;;3593060;39;20424;-68
2021/06/19 11:58:55;;;;;;;5.05;3.97;;;31.50;80.20;;;;;;3592196;39;20777;-68
2021/06/19 12:01:24;;;;;;;5.43;4.60;;;31.40;79.50;;;;;;3591439;39;20470;-68
2021/06/19 12:03:52;;;;;;;9.10;8.45;;;31.20;82.00;;;;;;3591600;39;20404;-68
2021/06/19 12:06:18;;;;;;;8.95;8.20;;;;;;;;;;3593939;39;20383;-69
2021/06/19 12:08:46;;;;;;;51.50;47.75;;;31.30;80.90;;;;;;3584886;39;20401;-68
2021/06/19 12:11:25;;;;;;;5.65;5.10;;;31.50;84.50;;;;;;3596673;39;20394;-68
2021/06/19 12:13:51;;;;;;;20.45;9.40;;;31.30;81.80;;;;;;3593746;39;20365;-70
2021/06/19 12:16:17;;;;;;;11.70;10.70;;;31.30;81.00;;;;;;3598327;39;20444;-71
2021/06/19 12:18:47;;;;;;;4.57;4.18;;;31.50;82.70;;;;;;3597304;39;20407;-71
2021/06/19 12:21:14;;;;;;;18.15;16.75;;;32.00;81.20;;;;;;3592912;39;20380;-71
2021/06/19 12:23:41;;;;;;;15.02;13.55;;;32.00;81.10;;;;;;3593319;39;20811;-70
2021/06/19 12:26:10;;;;;;;7.40;5.68;;;32.20;80.20;;;;;;3595867;39;20405;-71
2021/06/19 12:28:38;;;;;;;40.70;36.95;;;32.20;79.50;;;;;;3593523;39;20369;-71
2021/06/19 12:31:05;;;;;;;8.52;7.75;;;32.00;79.10;;;;;;3592038;39;20379;-71
2021/06/19 12:33:33;;;;;;;8.32;7.55;;;32.10;78.10;;;;;;3588007;39;20733;-71
2021/06/19 12:36:01;;;;;;;24.03;18.20;;;32.30;76.70;;;;;;3596746;39;20753;-70
2021/06/19 12:38:29;;;;;;;48.90;26.02;;;32.40;77.00;;;;;;3585233;40;20767;-70
2021/06/19 12:40:55;;;;;;;17.83;9.40;;;32.40;78.00;;;;;;3598152;39;20380;-71
2021/06/19 12:43:23;;;;;;;8.57;7.68;;;32.10;76.70;;;;;;3600177;39;20382;-70
2021/06/19 12:45:50;;;;;;;64.00;45.93;;;31.80;77.00;;;;;;3597099;39;20365;-71
2021/06/19 12:48:21;;;;;;;4.32;3.40;;;;;;;;;;3584632;39;20390;-71
2021/06/19 12:50:47;;;;;;;5.17;4.07;;;;;;;;;;3598467;39;20681;-68
2021/06/19 12:53:15;;;;;;;3.90;3.42;;;31.70;78.40;;;;;;3593377;39;20419;-68
2021/06/19 12:55:43;;;;;;;31.80;22.33;;;31.20;79.90;;;;;;3596473;39;20458;-68
2021/06/19 12:58:12;;;;;;;672.08;280.42;;;31.50;77.90;;;;;;3595919;39;20379;-68
2021/06/19 13:00:45;;;;;;;5.18;3.97;;;31.70;80.40;;;;;;3599244;39;20377;-68
2021/06/19 13:03:13;;;;;;;5.00;4.00;;;31.70;77.90;;;;;;3583773;40;20779;-68
2021/06/19 13:05:54;;;;;;;3.97;3.17;;;32.00;78.40;;;;;;3593853;39;20779;-68
2021/06/19 13:08:21;;;;;;;3.45;3.13;;;32.60;76.70;;;;;;3595050;39;20372;-68
2021/06/19 13:10:47;;;;;;;3.22;3.03;;;32.90;76.10;;;;;;3596021;39;20391;-68
2021/06/19 13:13:14;;;;;;;3.13;2.92;;;32.90;76.20;;;;;;3596009;39;20369;-68
2021/06/19 13:18:33;;;;;;;5.90;4.03;;;32.90;75.50;;;;;;3619668;39;20783;-66
2021/06/19 13:21:02;;;;;;;5.07;3.83;;;32.50;77.10;;;;;;3616825;39;20399;-67
2021/06/19 13:23:28;;;;;;;4.30;3.90;;;32.30;77.40;;;;;;3613881;39;20396;-68
2021/06/19 13:26:08;;;;;;;4.38;3.92;;;32.20;78.80;;;;;;3613362;39;20388;-68
2021/06/19 13:28:43;;;;;;;3.90;3.20;;;32.10;78.20;;;;;;3617659;39;20399;-67
2021/06/19 13:31:11;;;;;;;5.10;4.38;;;32.20;78.10;;;;;;3616220;39;20380;-67
2021/06/19 13:33:43;;;;;;;3.97;3.53;;;32.40;78.50;;;;;;3613228;39;20386;-67
2021/06/19 13:36:24;;;;;;;4.05;3.50;;;32.30;78.20;;;;;;3616427;39;20449;-67
2021/06/19 13:38:53;;;;;;;4.88;3.20;;;32.30;78.30;;;;;;3617437;39;20362;-68
2021/06/19 13:41:21;;;;;;;3.80;3.40;;;32.40;77.60;;;;;;3609265;39;20383;-67
2021/06/19 13:43:47;;;;;;;5.13;4.00;;;32.30;78.90;;;;;;3604427;39;20446;-67
2021/06/19 13:46:13;;;;;;;4.40;4.00;;;;;;;;;;3618640;39;20737;-67
2021/06/19 13:48:39;;;;;;;4.38;3.40;;;32.40;79.90;;;;;;3611740;39;20422;-68
2021/06/19 13:51:09;;;;;;;4.05;3.58;;;;;;;;;;3616783;39;20381;-67
2021/06/19 13:53:36;;;;;;;6.05;3.90;;;;;;;;;;3614117;39;20360;-67
2021/06/19 13:56:07;;;;;;;3.75;3.40;;;;;;;;;;3612159;39;20444;-67
2021/06/19 13:58:33;;;;;;;4.28;3.78;;;;;;;;;;3616877;39;20453;-67
2021/06/19 14:00:59;;;;;;;4.93;3.90;;;;;;;;;;3617063;39;20378;-68
2021/06/19 14:03:26;;;;;;;7.75;4.18;;;;;;;;;;3610129;39;20380;-68
2021/06/19 14:05:52;;;;;;;4.20;3.90;;;;;;;;;;3603621;39;20376;-67
2021/06/19 14:08:19;;;;;;;5.55;4.72;;;31.70;80.30;;;;;;3607967;39;20402;-67
2021/06/19 14:10:45;;;;;;;4.53;4.13;;;31.30;82.70;;;;;;3603461;39;20384;-67
2021/06/19 14:13:11;;;;;;;5.68;5.00;;;31.30;83.50;;;;;;3603828;39;20641;-67